sensor_id;sensor_type;location;lat;lon;timestamp;pressure;altitude;pressure_sealevel;temperature;humidity
83424;BME280;73355;49.044;8.686;2024-01-15T00:01:07;98723.13;;;-1.22;71.36
83424;BME280;73355;49.044;8.686;2024-01-15T00:03:33;98726.47;;;-1.25;71.38
83424;BME280;73355;49.044;8.686;2024-01-15T00:05:58;98717.44;;;-1.20;71.10
83424;BME280;73355;49.044;8.686;2024-01-15T00:08:23;98730.72;;;-1.24;71.16
83424;BME280;73355;49.044;8.686;2024-01-15T00:10:49;98713.78;;;-1.32;70.86
83424;BME280;73355;49.044;8.686;2024-01-15T00:13:14;98699.03;;;-1.26;71.09
83424;BME280;73355;49.044;8.686;2024-01-15T00:15:40;98705.63;;;-1.19;70.45
83424;BME280;73355;49.044;8.686;2024-01-15T00:18:05;98694.09;;;-1.23;70.33
83424;BME280;73355;49.044;8.686;2024-01-15T00:20:31;98683.53;;;-1.20;71.30
83424;BME280;73355;49.044;8.686;2024-01-15T00:22:56;98694.44;;;-1.25;70.76
83424;BME280;73355;49.044;8.686;2024-01-15T00:25:21;98689.03;;;-1.29;71.03
83424;BME280;73355;49.044;8.686;2024-01-15T00:27:47;98694.31;;;-1.32;72.00
83424;BME280;73355;49.044;8.686;2024-01-15T00:30:13;98698.00;;;-1.37;72.08
83424;BME280;73355;49.044;8.686;2024-01-15T00:32:38;98693.13;;;-1.35;71.43
83424;BME280;73355;49.044;8.686;2024-01-15T00:35:04;98690.75;;;-1.20;71.54
83424;BME280;73355;49.044;8.686;2024-01-15T00:37:29;98683.94;;;-1.18;71.53
83424;BME280;73355;49.044;8.686;2024-01-15T00:39:55;98683.03;;;-1.26;71.68
83424;BME280;73355;49.044;8.686;2024-01-15T00:42:20;98670.41;;;-1.25;72.58
83424;BME280;73355;49.044;8.686;2024-01-15T00:44:45;98668.13;;;-1.27;72.58
83424;BME280;73355;49.044;8.686;2024-01-15T00:47:11;98665.38;;;-1.30;72.33
83424;BME280;73355;49.044;8.686;2024-01-15T00:49:36;98677.19;;;-1.31;72.14
83424;BME280;73355;49.044;8.686;2024-01-15T00:52:01;98670.91;;;-1.19;72.51
83424;BME280;73355;49.044;8.686;2024-01-15T00:54:27;98657.84;;;-1.25;72.07
83424;BME280;73355;49.044;8.686;2024-01-15T00:56:52;98666.28;;;-1.22;72.33
83424;BME280;73355;49.044;8.686;2024-01-15T00:59:17;98657.66;;;-1.16;72.74
83424;BME280;73355;49.044;8.686;2024-01-15T01:01:43;98661.72;;;-1.22;72.39
83424;BME280;73355;49.044;8.686;2024-01-15T01:04:09;98650.34;;;-1.19;72.80
83424;BME280;73355;49.044;8.686;2024-01-15T01:06:35;98662.28;;;-1.13;72.73
83424;BME280;73355;49.044;8.686;2024-01-15T01:09:00;98655.28;;;-1.21;72.52
83424;BME280;73355;49.044;8.686;2024-01-15T01:11:26;98650.06;;;-1.14;72.31
83424;BME280;73355;49.044;8.686;2024-01-15T01:13:51;98649.50;;;-1.23;72.45
83424;BME280;73355;49.044;8.686;2024-01-15T01:16:16;98653.66;;;-1.26;72.92
83424;BME280;73355;49.044;8.686;2024-01-15T01:18:42;98656.38;;;-1.22;73.48
83424;BME280;73355;49.044;8.686;2024-01-15T01:21:07;98651.88;;;-1.18;72.91
83424;BME280;73355;49.044;8.686;2024-01-15T01:23:32;98647.38;;;-1.14;73.17
83424;BME280;73355;49.044;8.686;2024-01-15T01:25:58;98647.75;;;-1.15;73.48
83424;BME280;73355;49.044;8.686;2024-01-15T01:28:24;98647.75;;;-1.15;73.10
83424;BME280;73355;49.044;8.686;2024-01-15T01:30:49;98644.03;;;-1.11;73.12
83424;BME280;73355;49.044;8.686;2024-01-15T01:33:14;98653.97;;;-1.08;73.07
83424;BME280;73355;49.044;8.686;2024-01-15T01:35:40;98647.97;;;-1.05;72.53
83424;BME280;73355;49.044;8.686;2024-01-15T01:38:05;98652.19;;;-1.04;73.20
83424;BME280;73355;49.044;8.686;2024-01-15T01:40:30;98654.13;;;-1.01;72.74
83424;BME280;73355;49.044;8.686;2024-01-15T01:42:56;98657.38;;;-1.11;72.26
83424;BME280;73355;49.044;8.686;2024-01-15T01:45:21;98645.50;;;-1.13;73.21
83424;BME280;73355;49.044;8.686;2024-01-15T01:47:46;98652.38;;;-1.12;72.80
83424;BME280;73355;49.044;8.686;2024-01-15T01:50:12;98649.56;;;-1.00;73.37
83424;BME280;73355;49.044;8.686;2024-01-15T01:52:38;98645.72;;;-1.03;72.99
83424;BME280;73355;49.044;8.686;2024-01-15T01:55:06;98644.50;;;-1.05;72.48
83424;BME280;73355;49.044;8.686;2024-01-15T01:57:33;98640.72;;;-1.04;73.05
83424;BME280;73355;49.044;8.686;2024-01-15T02:00:00;98637.28;;;-1.05;73.12
83424;BME280;73355;49.044;8.686;2024-01-15T02:02:26;98647.72;;;-0.96;73.16
83424;BME280;73355;49.044;8.686;2024-01-15T02:04:51;98644.66;;;-0.98;73.20
83424;BME280;73355;49.044;8.686;2024-01-15T02:07:17;98640.16;;;-0.94;72.40
83424;BME280;73355;49.044;8.686;2024-01-15T02:09:44;98636.34;;;-0.93;71.85
83424;BME280;73355;49.044;8.686;2024-01-15T02:12:10;98628.25;;;-0.97;72.35
83424;BME280;73355;49.044;8.686;2024-01-15T02:14:35;98636.50;;;-0.86;72.17
83424;BME280;73355;49.044;8.686;2024-01-15T02:17:01;98645.91;;;-0.92;72.73
83424;BME280;73355;49.044;8.686;2024-01-15T02:19:26;98626.84;;;-0.91;71.79
83424;BME280;73355;49.044;8.686;2024-01-15T02:24:22;98613.44;;;-0.94;72.47
83424;BME280;73355;49.044;8.686;2024-01-15T02:26:48;98619.56;;;-0.94;72.71
83424;BME280;73355;49.044;8.686;2024-01-15T02:29:14;98623.69;;;-0.96;72.04
83424;BME280;73355;49.044;8.686;2024-01-15T02:31:40;98621.41;;;-0.98;72.73
83424;BME280;73355;49.044;8.686;2024-01-15T02:34:05;98629.13;;;-0.93;72.92
83424;BME280;73355;49.044;8.686;2024-01-15T02:36:31;98611.88;;;-0.95;72.58
83424;BME280;73355;49.044;8.686;2024-01-15T02:38:56;98616.53;;;-0.92;72.30
83424;BME280;73355;49.044;8.686;2024-01-15T02:41:21;98627.09;;;-0.99;72.50
83424;BME280;73355;49.044;8.686;2024-01-15T02:43:47;98635.56;;;-0.94;72.86
83424;BME280;73355;49.044;8.686;2024-01-15T02:46:12;98619.13;;;-0.96;72.94
83424;BME280;73355;49.044;8.686;2024-01-15T02:48:37;98621.75;;;-0.99;72.28
83424;BME280;73355;49.044;8.686;2024-01-15T02:51:03;98633.13;;;-1.02;73.44
83424;BME280;73355;49.044;8.686;2024-01-15T02:53:28;98629.91;;;-0.92;72.24
83424;BME280;73355;49.044;8.686;2024-01-15T02:55:54;98625.03;;;-0.87;72.49
83424;BME280;73355;49.044;8.686;2024-01-15T02:58:19;98610.56;;;-0.86;72.42
83424;BME280;73355;49.044;8.686;2024-01-15T03:00:44;98635.56;;;-0.94;72.64
83424;BME280;73355;49.044;8.686;2024-01-15T03:03:11;98619.91;;;-0.95;73.17
83424;BME280;73355;49.044;8.686;2024-01-15T03:05:37;98620.69;;;-0.95;72.94
83424;BME280;73355;49.044;8.686;2024-01-15T03:08:02;98626.34;;;-0.96;72.81
83424;BME280;73355;49.044;8.686;2024-01-15T03:10:27;98621.44;;;-0.94;72.68
83424;BME280;73355;49.044;8.686;2024-01-15T03:12:53;98615.00;;;-0.93;72.57
83424;BME280;73355;49.044;8.686;2024-01-15T03:15:18;98618.50;;;-0.89;72.22
83424;BME280;73355;49.044;8.686;2024-01-15T03:17:44;98628.88;;;-0.84;72.23
83424;BME280;73355;49.044;8.686;2024-01-15T03:20:10;98628.09;;;-0.85;73.16
83424;BME280;73355;49.044;8.686;2024-01-15T03:22:35;98614.69;;;-0.88;72.37
83424;BME280;73355;49.044;8.686;2024-01-15T03:25:01;98618.97;;;-0.84;72.36
83424;BME280;73355;49.044;8.686;2024-01-15T03:27:26;98609.66;;;-0.93;71.97
83424;BME280;73355;49.044;8.686;2024-01-15T03:29:51;98614.41;;;-0.83;72.04
83424;BME280;73355;49.044;8.686;2024-01-15T03:32:17;98614.06;;;-0.81;72.19
83424;BME280;73355;49.044;8.686;2024-01-15T03:34:42;98607.16;;;-0.82;72.58
83424;BME280;73355;49.044;8.686;2024-01-15T03:37:08;98609.69;;;-0.90;72.80
83424;BME280;73355;49.044;8.686;2024-01-15T03:39:33;98610.91;;;-0.87;72.68
83424;BME280;73355;49.044;8.686;2024-01-15T03:41:58;98610.97;;;-0.84;72.97
83424;BME280;73355;49.044;8.686;2024-01-15T03:44:24;98611.59;;;-0.90;73.24
83424;BME280;73355;49.044;8.686;2024-01-15T03:46:50;98606.34;;;-0.87;72.96
83424;BME280;73355;49.044;8.686;2024-01-15T03:49:15;98615.03;;;-0.90;72.89
83424;BME280;73355;49.044;8.686;2024-01-15T03:51:40;98609.34;;;-0.88;72.66
83424;BME280;73355;49.044;8.686;2024-01-15T03:54:06;98602.16;;;-0.84;73.43
83424;BME280;73355;49.044;8.686;2024-01-15T03:56:31;98594.94;;;-0.84;72.86
83424;BME280;73355;49.044;8.686;2024-01-15T03:58:56;98620.41;;;-0.67;72.71
83424;BME280;73355;49.044;8.686;2024-01-15T04:01:22;98614.94;;;-0.74;72.97
83424;BME280;73355;49.044;8.686;2024-01-15T04:03:47;98612.16;;;-0.81;72.83
83424;BME280;73355;49.044;8.686;2024-01-15T04:06:13;98602.66;;;-0.78;73.01
83424;BME280;73355;49.044;8.686;2024-01-15T04:08:38;98595.00;;;-0.80;72.90
83424;BME280;73355;49.044;8.686;2024-01-15T04:11:03;98574.28;;;-0.87;73.25
83424;BME280;73355;49.044;8.686;2024-01-15T04:13:32;98577.13;;;-0.76;73.61
83424;BME280;73355;49.044;8.686;2024-01-15T04:15:57;98570.28;;;-0.73;73.18
83424;BME280;73355;49.044;8.686;2024-01-15T04:18:23;98549.16;;;-0.82;73.10
83424;BME280;73355;49.044;8.686;2024-01-15T04:20:48;98533.44;;;-0.87;73.18
83424;BME280;73355;49.044;8.686;2024-01-15T04:23:13;98534.91;;;-0.90;73.55
83424;BME280;73355;49.044;8.686;2024-01-15T04:25:38;98541.09;;;-0.86;74.65
83424;BME280;73355;49.044;8.686;2024-01-15T04:28:08;98540.72;;;-0.84;74.51
83424;BME280;73355;49.044;8.686;2024-01-15T04:30:33;98533.56;;;-0.80;74.04
83424;BME280;73355;49.044;8.686;2024-01-15T04:32:58;98535.84;;;-0.78;75.03
83424;BME280;73355;49.044;8.686;2024-01-15T04:35:24;98542.88;;;-0.70;73.72
83424;BME280;73355;49.044;8.686;2024-01-15T04:37:49;98522.56;;;-0.75;74.35
83424;BME280;73355;49.044;8.686;2024-01-15T04:40:14;98524.47;;;-0.75;74.44
83424;BME280;73355;49.044;8.686;2024-01-15T04:42:40;98531.63;;;-0.79;74.62
83424;BME280;73355;49.044;8.686;2024-01-15T04:45:05;98527.50;;;-0.77;74.22
83424;BME280;73355;49.044;8.686;2024-01-15T04:47:31;98553.91;;;-0.72;74.17
83424;BME280;73355;49.044;8.686;2024-01-15T04:49:56;98543.34;;;-0.65;74.52
83424;BME280;73355;49.044;8.686;2024-01-15T04:52:21;98549.59;;;-0.57;73.98
83424;BME280;73355;49.044;8.686;2024-01-15T04:54:46;98534.59;;;-0.62;73.86
83424;BME280;73355;49.044;8.686;2024-01-15T04:57:12;98534.59;;;-0.62;74.15
83424;BME280;73355;49.044;8.686;2024-01-15T04:59:37;98550.28;;;-0.60;73.73
83424;BME280;73355;49.044;8.686;2024-01-15T05:02:03;98542.44;;;-0.50;74.24
83424;BME280;73355;49.044;8.686;2024-01-15T05:04:28;98540.19;;;-0.48;74.35
83424;BME280;73355;49.044;8.686;2024-01-15T05:06:54;98534.75;;;-0.51;73.67
83424;BME280;73355;49.044;8.686;2024-01-15T05:09:20;98535.19;;;-0.49;73.83
83424;BME280;73355;49.044;8.686;2024-01-15T05:11:45;98529.50;;;-0.48;73.71
83424;BME280;73355;49.044;8.686;2024-01-15T05:14:10;98535.72;;;-0.40;73.59
83424;BME280;73355;49.044;8.686;2024-01-15T05:16:39;98536.22;;;-0.31;73.61
83424;BME280;73355;49.044;8.686;2024-01-15T05:19:07;98523.09;;;-0.39;73.18
83424;BME280;73355;49.044;8.686;2024-01-15T05:21:32;98520.03;;;-0.42;73.54
83424;BME280;73355;49.044;8.686;2024-01-15T05:23:57;98514.63;;;-0.45;73.63
83424;BME280;73355;49.044;8.686;2024-01-15T05:26:23;98511.59;;;-0.44;73.73
83424;BME280;73355;49.044;8.686;2024-01-15T05:28:48;98515.47;;;-0.41;74.20
83424;BME280;73355;49.044;8.686;2024-01-15T05:31:14;98514.09;;;-0.28;74.12
83424;BME280;73355;49.044;8.686;2024-01-15T05:33:39;98508.31;;;-0.33;73.98
83424;BME280;73355;49.044;8.686;2024-01-15T05:36:05;98507.59;;;-0.30;73.76
83424;BME280;73355;49.044;8.686;2024-01-15T05:38:31;98509.59;;;-0.24;74.20
83424;BME280;73355;49.044;8.686;2024-01-15T05:40:56;98507.75;;;-0.20;73.56
83424;BME280;73355;49.044;8.686;2024-01-15T05:43:21;98522.66;;;-0.19;73.78
83424;BME280;73355;49.044;8.686;2024-01-15T05:45:47;98526.28;;;-0.04;72.95
83424;BME280;73355;49.044;8.686;2024-01-15T05:48:12;98524.69;;;-0.09;73.75
83424;BME280;73355;49.044;8.686;2024-01-15T05:50:38;98535.38;;;-0.12;72.86
83424;BME280;73355;49.044;8.686;2024-01-15T05:53:03;98537.25;;;-0.13;73.39
83424;BME280;73355;49.044;8.686;2024-01-15T05:55:28;98529.72;;;-0.04;72.92
83424;BME280;73355;49.044;8.686;2024-01-15T05:57:54;98529.72;;;-0.04;73.74
83424;BME280;73355;49.044;8.686;2024-01-15T06:00:19;98530.53;;;0.00;73.23
83424;BME280;73355;49.044;8.686;2024-01-15T06:02:44;98534.75;;;0.02;73.08
83424;BME280;73355;49.044;8.686;2024-01-15T06:05:10;98532.88;;;0.02;73.11
83424;BME280;73355;49.044;8.686;2024-01-15T06:07:35;98510.38;;;0.07;72.58
83424;BME280;73355;49.044;8.686;2024-01-15T06:10:02;98507.38;;;0.12;71.93
83424;BME280;73355;49.044;8.686;2024-01-15T06:12:28;98505.03;;;0.07;72.74
83424;BME280;73355;49.044;8.686;2024-01-15T06:14:53;98506.88;;;0.03;72.44
83424;BME280;73355;49.044;8.686;2024-01-15T06:17:18;98507.25;;;0.01;72.52
83424;BME280;73355;49.044;8.686;2024-01-15T06:19:44;98514.13;;;0.02;72.50
83424;BME280;73355;49.044;8.686;2024-01-15T06:22:09;98511.28;;;0.18;72.46
83424;BME280;73355;49.044;8.686;2024-01-15T06:24:34;98504.19;;;-0.01;72.57
83424;BME280;73355;49.044;8.686;2024-01-15T06:27:00;98490.75;;;-0.05;72.78
83424;BME280;73355;49.044;8.686;2024-01-15T06:29:26;98488.44;;;-0.06;72.51
83424;BME280;73355;49.044;8.686;2024-01-15T06:31:52;98496.16;;;-0.01;73.03
83424;BME280;73355;49.044;8.686;2024-01-15T06:34:17;98488.94;;;0.03;72.77
83424;BME280;73355;49.044;8.686;2024-01-15T06:36:42;98495.19;;;0.14;72.19
83424;BME280;73355;49.044;8.686;2024-01-15T06:39:08;98496.28;;;0.10;72.29
83424;BME280;73355;49.044;8.686;2024-01-15T06:41:35;98500.13;;;0.12;71.53
83424;BME280;73355;49.044;8.686;2024-01-15T06:44:00;98487.50;;;0.09;71.63
83424;BME280;73355;49.044;8.686;2024-01-15T06:46:26;98485.97;;;0.12;72.00
83424;BME280;73355;49.044;8.686;2024-01-15T06:48:51;98487.59;;;0.16;71.71
83424;BME280;73355;49.044;8.686;2024-01-15T06:51:16;98489.09;;;0.17;71.77
83424;BME280;73355;49.044;8.686;2024-01-15T06:53:42;98493.72;;;0.17;71.78
83424;BME280;73355;49.044;8.686;2024-01-15T06:56:08;98494.19;;;0.26;70.71
83424;BME280;73355;49.044;8.686;2024-01-15T06:58:33;98499.91;;;0.24;71.31
83424;BME280;73355;49.044;8.686;2024-01-15T07:00:59;98499.41;;;0.15;71.40
83424;BME280;73355;49.044;8.686;2024-01-15T07:03:24;98494.38;;;0.10;70.77
83424;BME280;73355;49.044;8.686;2024-01-15T07:05:49;98487.53;;;0.13;71.51
83424;BME280;73355;49.044;8.686;2024-01-15T07:08:15;98491.31;;;0.12;71.10
83424;BME280;73355;49.044;8.686;2024-01-15T07:10:40;98491.66;;;0.07;71.22
83424;BME280;73355;49.044;8.686;2024-01-15T07:13:06;98493.50;;;0.03;71.65
83424;BME280;73355;49.044;8.686;2024-01-15T07:15:31;98492.34;;;0.00;72.05
83424;BME280;73355;49.044;8.686;2024-01-15T07:17:56;98490.75;;;-0.05;71.52
83424;BME280;73355;49.044;8.686;2024-01-15T07:20:22;98486.22;;;-0.01;72.32
83424;BME280;73355;49.044;8.686;2024-01-15T07:22:47;98495.75;;;-0.03;71.67
83424;BME280;73355;49.044;8.686;2024-01-15T07:25:12;98502.75;;;0.09;71.86
83424;BME280;73355;49.044;8.686;2024-01-15T07:27:38;98499.22;;;0.01;72.18
83424;BME280;73355;49.044;8.686;2024-01-15T07:30:03;98515.28;;;0.01;72.20
83424;BME280;73355;49.044;8.686;2024-01-15T07:32:30;98511.56;;;0.09;71.89
83424;BME280;73355;49.044;8.686;2024-01-15T07:34:56;98511.06;;;0.00;72.14
83424;BME280;73355;49.044;8.686;2024-01-15T07:37:22;98516.38;;;-0.04;72.20
83424;BME280;73355;49.044;8.686;2024-01-15T07:39:48;98513.75;;;0.00;71.60
83424;BME280;73355;49.044;8.686;2024-01-15T07:42:14;98518.38;;;0.03;72.08
83424;BME280;73355;49.044;8.686;2024-01-15T07:44:39;98525.25;;;0.04;72.08
83424;BME280;73355;49.044;8.686;2024-01-15T07:47:05;98517.69;;;0.10;71.86
83424;BME280;73355;49.044;8.686;2024-01-15T07:49:30;98522.63;;;0.08;71.80
83424;BME280;73355;49.044;8.686;2024-01-15T07:51:55;98515.78;;;0.10;71.45
83424;BME280;73355;49.044;8.686;2024-01-15T07:54:21;98511.16;;;0.07;71.50
83424;BME280;73355;49.044;8.686;2024-01-15T07:56:53;98516.19;;;0.12;71.64
83424;BME280;73355;49.044;8.686;2024-01-15T07:59:19;98517.38;;;0.15;71.45
83424;BME280;73355;49.044;8.686;2024-01-15T08:01:44;98524.72;;;0.21;71.04
83424;BME280;73355;49.044;8.686;2024-01-15T08:04:09;98527.84;;;0.27;71.03
83424;BME280;73355;49.044;8.686;2024-01-15T08:06:37;98522.84;;;0.25;71.36
83424;BME280;73355;49.044;8.686;2024-01-15T08:09:03;98522.16;;;0.32;70.66
83424;BME280;73355;49.044;8.686;2024-01-15T08:11:29;98523.72;;;0.33;71.21
83424;BME280;73355;49.044;8.686;2024-01-15T08:13:54;98523.78;;;0.40;70.42
83424;BME280;73355;49.044;8.686;2024-01-15T08:16:20;98513.81;;;0.37;70.91
83424;BME280;73355;49.044;8.686;2024-01-15T08:18:46;98517.75;;;0.47;69.39
83424;BME280;73355;49.044;8.686;2024-01-15T08:21:12;98519.59;;;0.39;69.95
83424;BME280;73355;49.044;8.686;2024-01-15T08:23:37;98513.41;;;0.35;69.94
83424;BME280;73355;49.044;8.686;2024-01-15T08:26:02;98515.72;;;0.36;70.52
83424;BME280;73355;49.044;8.686;2024-01-15T08:28:28;98514.22;;;0.39;70.41
83424;BME280;73355;49.044;8.686;2024-01-15T08:30:53;98515.72;;;0.36;70.51
83424;BME280;73355;49.044;8.686;2024-01-15T08:33:18;98515.28;;;0.31;70.81
83424;BME280;73355;49.044;8.686;2024-01-15T08:35:44;98506.47;;;0.30;70.24
83424;BME280;73355;49.044;8.686;2024-01-15T08:38:09;98514.16;;;0.35;71.07
83424;BME280;73355;49.044;8.686;2024-01-15T08:40:43;98517.97;;;0.34;70.69
83424;BME280;73355;49.044;8.686;2024-01-15T08:43:09;98511.13;;;0.37;71.26
83424;BME280;73355;49.044;8.686;2024-01-15T08:45:34;98504.56;;;0.31;71.01
83424;BME280;73355;49.044;8.686;2024-01-15T08:48:00;98501.88;;;0.31;71.91
83424;BME280;73355;49.044;8.686;2024-01-15T08:50:26;98495.03;;;0.33;71.84
83424;BME280;73355;49.044;8.686;2024-01-15T08:52:52;98503.09;;;0.37;72.04
83424;BME280;73355;49.044;8.686;2024-01-15T08:55:20;98498.19;;;0.43;72.51
83424;BME280;73355;49.044;8.686;2024-01-15T08:57:48;98495.19;;;0.48;71.48
83424;BME280;73355;49.044;8.686;2024-01-15T09:00:13;98498.66;;;0.52;71.46
83424;BME280;73355;49.044;8.686;2024-01-15T09:02:39;98496.44;;;0.57;71.55
83424;BME280;73355;49.044;8.686;2024-01-15T09:05:04;98494.91;;;0.56;71.44
83424;BME280;73355;49.044;8.686;2024-01-15T09:07:33;98490.69;;;0.55;71.14
83424;BME280;73355;49.044;8.686;2024-01-15T09:10:19;98489.56;;;0.56;71.63
83424;BME280;73355;49.044;8.686;2024-01-15T09:12:45;98478.47;;;0.58;71.54
83424;BME280;73355;49.044;8.686;2024-01-15T09:15:10;98483.91;;;0.65;70.75
83424;BME280;73355;49.044;8.686;2024-01-15T09:17:35;98481.31;;;0.72;70.61
83424;BME280;73355;49.044;8.686;2024-01-15T09:20:10;98486.66;;;0.72;70.66
83424;BME280;73355;49.044;8.686;2024-01-15T09:22:38;98487.81;;;0.74;70.32
83424;BME280;73355;49.044;8.686;2024-01-15T09:25:05;98484.41;;;0.77;70.31
83424;BME280;73355;49.044;8.686;2024-01-15T09:27:31;98488.25;;;0.80;70.37
83424;BME280;73355;49.044;8.686;2024-01-15T09:29:57;98487.97;;;0.89;70.59
83424;BME280;73355;49.044;8.686;2024-01-15T09:32:32;98485.25;;;0.85;70.01
83424;BME280;73355;49.044;8.686;2024-01-15T09:34:58;98487.53;;;0.83;70.56
83424;BME280;73355;49.044;8.686;2024-01-15T09:37:23;98488.69;;;0.86;70.32
83424;BME280;73355;49.044;8.686;2024-01-15T09:39:48;98479.91;;;0.85;70.06
83424;BME280;73355;49.044;8.686;2024-01-15T09:42:24;98478.75;;;0.86;70.78
83424;BME280;73355;49.044;8.686;2024-01-15T09:45:03;98486.78;;;0.86;70.58
83424;BME280;73355;49.044;8.686;2024-01-15T09:47:29;98476.13;;;0.93;69.86
83424;BME280;73355;49.044;8.686;2024-01-15T09:49:55;98484.22;;;0.97;69.95
83424;BME280;73355;49.044;8.686;2024-01-15T09:52:30;98478.59;;;1.12;68.95
83424;BME280;73355;49.044;8.686;2024-01-15T09:55:04;98484.31;;;1.07;68.68
83424;BME280;73355;49.044;8.686;2024-01-15T09:57:31;98472.78;;;1.03;68.74
83424;BME280;73355;49.044;8.686;2024-01-15T09:59:57;98468.16;;;1.00;69.05
83424;BME280;73355;49.044;8.686;2024-01-15T10:02:24;98462.00;;;0.96;69.60
83424;BME280;73355;49.044;8.686;2024-01-15T10:04:52;98467.75;;;0.98;69.99
83424;BME280;73355;49.044;8.686;2024-01-15T10:07:29;98454.00;;;1.00;70.19
83424;BME280;73355;49.044;8.686;2024-01-15T10:09:54;98460.16;;;1.04;70.40
83424;BME280;73355;49.044;8.686;2024-01-15T10:12:24;98451.75;;;1.09;70.27
83424;BME280;73355;49.044;8.686;2024-01-15T10:15:01;98451.38;;;1.07;70.35
83424;BME280;73355;49.044;8.686;2024-01-15T10:17:36;98446.03;;;1.07;70.46
83424;BME280;73355;49.044;8.686;2024-01-15T10:20:02;98439.09;;;1.02;70.59
83424;BME280;73355;49.044;8.686;2024-01-15T10:22:29;98440.25;;;1.05;71.31
83424;BME280;73355;49.044;8.686;2024-01-15T10:24:54;98434.50;;;1.03;71.20
83424;BME280;73355;49.044;8.686;2024-01-15T10:27:23;98434.88;;;1.01;71.73
83424;BME280;73355;49.044;8.686;2024-01-15T10:30:00;98430.31;;;1.05;72.38
83424;BME280;73355;49.044;8.686;2024-01-15T10:32:27;98423.75;;;0.99;72.86
83424;BME280;73355;49.044;8.686;2024-01-15T10:34:52;98422.97;;;0.95;72.94
83424;BME280;73355;49.044;8.686;2024-01-15T10:37:18;98419.94;;;0.97;73.39
83424;BME280;73355;49.044;8.686;2024-01-15T10:39:46;98415.31;;;0.97;74.16
83424;BME280;73355;49.044;8.686;2024-01-15T10:42:29;98406.13;;;0.98;74.54
83424;BME280;73355;49.044;8.686;2024-01-15T10:44:55;98414.59;;;1.00;74.56
83424;BME280;73355;49.044;8.686;2024-01-15T10:47:21;98408.47;;;1.03;75.33
83424;BME280;73355;49.044;8.686;2024-01-15T10:49:56;98417.69;;;1.09;75.52
83424;BME280;73355;49.044;8.686;2024-01-15T10:52:40;98402.75;;;1.05;76.24
83424;BME280;73355;49.044;8.686;2024-01-15T10:55:09;98400.78;;;0.98;75.96
83424;BME280;73355;49.044;8.686;2024-01-15T10:57:44;98401.59;;;1.02;76.98
83424;BME280;73355;49.044;8.686;2024-01-15T11:00:21;98393.56;;;1.06;76.47
83424;BME280;73355;49.044;8.686;2024-01-15T11:02:47;98393.91;;;1.01;76.80
83424;BME280;73355;49.044;8.686;2024-01-15T11:05:12;98397.75;;;1.03;77.62
83424;BME280;73355;49.044;8.686;2024-01-15T11:07:39;98400.06;;;1.01;77.49
83424;BME280;73355;49.044;8.686;2024-01-15T11:10:43;98401.50;;;0.92;78.24
83424;BME280;73355;49.044;8.686;2024-01-15T11:16:10;98391.59;;;0.96;78.18
83424;BME280;73355;49.044;8.686;2024-01-15T11:18:42;98390.84;;;0.99;78.56
83424;BME280;73355;49.044;8.686;2024-01-15T11:23:43;98387.44;;;1.02;78.63
83424;BME280;73355;49.044;8.686;2024-01-15T11:29:06;98399.34;;;1.08;77.90
83424;BME280;73355;49.044;8.686;2024-01-15T11:34:04;98400.09;;;1.08;78.66
83424;BME280;73355;49.044;8.686;2024-01-15T11:41:58;98406.28;;;1.16;78.17
83424;BME280;73355;49.044;8.686;2024-01-15T11:44:25;98400.13;;;1.12;78.20
83424;BME280;73355;49.044;8.686;2024-01-15T11:46:57;98408.56;;;1.14;78.67
83424;BME280;73355;49.044;8.686;2024-01-15T11:52:11;98406.97;;;1.09;78.33
83424;BME280;73355;49.044;8.686;2024-01-15T11:54:38;98404.69;;;1.08;78.82
83424;BME280;73355;49.044;8.686;2024-01-15T11:57:09;98404.34;;;1.16;78.84
83424;BME280;73355;49.044;8.686;2024-01-15T11:59:46;98402.81;;;1.12;78.95
83424;BME280;73355;49.044;8.686;2024-01-15T12:02:12;98404.28;;;1.06;79.21
83424;BME280;73355;49.044;8.686;2024-01-15T12:04:38;98405.50;;;1.15;79.00
83424;BME280;73355;49.044;8.686;2024-01-15T12:07:04;98401.69;;;1.16;79.02
83424;BME280;73355;49.044;8.686;2024-01-15T12:09:30;98399.78;;;1.17;79.32
83424;BME280;73355;49.044;8.686;2024-01-15T12:12:07;98402.13;;;1.25;79.17
83424;BME280;73355;49.044;8.686;2024-01-15T12:14:37;98402.44;;;1.17;79.01
83424;BME280;73355;49.044;8.686;2024-01-15T12:17:03;98392.91;;;1.19;79.32
83424;BME280;73355;49.044;8.686;2024-01-15T12:19:29;98397.50;;;1.22;79.35
83424;BME280;73355;49.044;8.686;2024-01-15T12:21:54;98401.31;;;1.21;79.08
83424;BME280;73355;49.044;8.686;2024-01-15T12:24:20;98405.56;;;1.22;79.67
83424;BME280;73355;49.044;8.686;2024-01-15T12:26:48;98397.09;;;1.20;79.04
83424;BME280;73355;49.044;8.686;2024-01-15T12:29:13;98406.03;;;1.39;79.23
83424;BME280;73355;49.044;8.686;2024-01-15T12:31:39;98397.56;;;1.33;78.74
83424;BME280;73355;49.044;8.686;2024-01-15T12:34:04;98397.94;;;1.32;79.26
83424;BME280;73355;49.044;8.686;2024-01-15T12:36:31;98398.72;;;1.32;78.91
83424;BME280;73355;49.044;8.686;2024-01-15T12:39:00;98398.34;;;1.37;79.33
83424;BME280;73355;49.044;8.686;2024-01-15T12:41:25;98406.38;;;1.34;78.88
83424;BME280;73355;49.044;8.686;2024-01-15T12:43:51;98411.44;;;1.42;78.77
83424;BME280;73355;49.044;8.686;2024-01-15T12:46:16;98408.75;;;1.42;78.92
83424;BME280;73355;49.044;8.686;2024-01-15T12:48:42;98402.63;;;1.42;78.85
83424;BME280;73355;49.044;8.686;2024-01-15T12:51:08;98403.75;;;1.41;78.95
83424;BME280;73355;49.044;8.686;2024-01-15T12:53:33;98405.66;;;1.40;79.67
83424;BME280;73355;49.044;8.686;2024-01-15T12:56:04;98404.63;;;1.59;79.34
83424;BME280;73355;49.044;8.686;2024-01-15T12:58:29;98406.91;;;1.57;78.97
83424;BME280;73355;49.044;8.686;2024-01-15T13:00:55;98396.91;;;1.54;78.90
83424;BME280;73355;49.044;8.686;2024-01-15T13:03:22;98396.22;;;1.67;79.40
83424;BME280;73355;49.044;8.686;2024-01-15T13:05:47;98395.03;;;1.61;78.80
83424;BME280;73355;49.044;8.686;2024-01-15T13:08:14;98405.03;;;1.68;79.37
83424;BME280;73355;49.044;8.686;2024-01-15T13:10:42;98404.69;;;1.77;78.12
83424;BME280;73355;49.044;8.686;2024-01-15T13:13:08;98411.19;;;1.72;78.16
83424;BME280;73355;49.044;8.686;2024-01-15T13:15:33;98413.88;;;1.69;78.44
83424;BME280;73355;49.044;8.686;2024-01-15T13:17:58;98415.75;;;1.64;78.42
83424;BME280;73355;49.044;8.686;2024-01-15T13:20:24;98421.13;;;1.68;78.54
83424;BME280;73355;49.044;8.686;2024-01-15T13:22:49;98423.44;;;1.70;78.45